Lake City, IA

1:18 PM CDT on August 28, 2016 (GMT -0500)
Midwest | | Change Station

Elev 1201 ft 42.27 °N, 94.74 °W | Updated 15 days ago

Partly Cloudy
Partly Cloudy
83 °F
Feels Like 87 °F
N
9
Wind Variable Wind from SSE
Gusts mph

Today
High -- | Low -- °F
--% Chance of Precip.
Yesterday
High -- | Low -- °F
Precip. -- in
Pressure 30.13 in
Visibility 10.0 miles
Clouds Scattered Clouds 2900 ft
Heat Index 87 °F
Dew Point 72 °F
Humidity 68%
Rainfall in
Snow Depth Not available.
6:40 AM 7:58 PM
Waning Crescent, 14% visible
METAR KCIN 281815Z AUTO 16008KT 130V200 10SM SCT029 30/23 A3013 RMK AO2
Pressure 30.13 in
Visibility 10.0 miles
Clouds Scattered Clouds 2900 ft
Heat Index 87 °F
Dew Point 72 °F
Humidity 68%
Rainfall in
Snow Depth Not available.
6:40 AM 7:58 PM
Waning Crescent, 14% visible
METAR KCIN 281815Z AUTO 16008KT 130V200 10SM SCT029 30/23 A3013 RMK AO2

10-Day Weather Forecast

Almanac

Astronomy

Aug. 28, 2016 Rise Set
Actual Time
Civil Twilight
Nautical Twilight
Astronomical Twilight
Moon
Length of Visible Light
Length of Day
Tomorrow will be .
, % of the Moon is Illuminated

Today's Extremes

State Highs State Lows

Community

WunderPhotos

Upload Photos

1,935,644 photos uploaded!

WunderBlog® & News

Nearby

Air Quality

  Air Quality AQ Index Pollutant
Not available.

Snow Depth

Station Depth Elevation

Earthquake Activity

City Distance Mag. Time & Date
Minimum magnitude displayed is 2.5.

Coastal Water Temperatures

Place Temperature

Stations

Nearby Weather Stations

Station Location Temp. Windchill Dew Point Humidity Wind Precip. Elev Updated Type
                   

Watches & Warnings

There are currently no watches in effect.